Time;durP1;ratioP1;P1;durP2;ratioP2;P2;SDS_P1;SDS_P2;PMS_P1;PMS_P2;Temp;Humidity;BMP_temperature;BMP_pressure;BME280_temperature;BME280_humidity;BME280_pressure;Samples;Min_cycle;Max_cycle;Signal;HPM_P1;HPM_P2
2022/01/13 00:01:35;;;;;;;3.78;3.00;;;8.40;81.90;;;;;;5009251;28;20510;-51
2022/01/13 00:04:01;;;;;;;4.43;3.35;;;8.40;81.90;;;;;;5010045;28;20062;-55
2022/01/13 00:06:27;;;;;;;3.72;3.00;;;8.40;81.90;;;;;;5010887;28;20079;-54
2022/01/13 00:08:53;;;;;;;5.03;3.40;;;8.40;81.90;;;;;;4993603;28;20383;-54
2022/01/13 00:11:19;;;;;;;4.68;3.35;;;8.40;81.90;;;;;;5010068;28;20042;-56
2022/01/13 00:13:52;;;;;;;4.47;3.45;;;8.40;81.90;;;;;;5009839;28;20089;-50
2022/01/13 00:19:34;;;;;;;5.28;3.45;;;8.40;81.90;;;;;;5009854;28;20052;-54
2022/01/13 00:21:59;;;;;;;3.85;2.58;;;8.40;81.90;;;;;;5070144;28;20501;-54
2022/01/13 00:24:25;;;;;;;4.47;3.17;;;8.40;81.90;;;;;;5071555;28;20044;-54
2022/01/13 00:26:53;;;;;;;5.00;3.38;;;8.40;81.90;;;;;;5072443;28;20043;-51
2022/01/13 00:29:25;;;;;;;3.88;3.05;;;8.40;81.90;;;;;;5076670;28;20048;-53
2022/01/13 00:31:50;;;;;;;3.38;2.55;;;8.40;81.90;;;;;;5075374;28;20181;-56
2022/01/13 00:34:16;;;;;;;5.20;2.97;;;8.40;81.90;;;;;;5074681;28;20063;-55
2022/01/13 00:36:42;;;;;;;4.15;3.40;;;8.40;81.90;;;;;;5075064;28;20060;-55
2022/01/13 00:39:10;;;;;;;4.85;3.25;;;8.40;81.90;;;;;;5074974;28;20496;-55
2022/01/13 00:41:36;;;;;;;5.47;3.90;;;8.40;81.90;;;;;;5074955;28;20041;-52
2022/01/13 00:44:06;;;;;;;5.35;3.30;;;8.40;81.90;;;;;;5075144;28;20044;-55
2022/01/13 00:46:44;;;;;;;5.15;2.90;;;8.40;81.90;;;;;;5075176;28;20047;-56
2022/01/13 00:49:12;;;;;;;4.78;3.22;;;8.40;81.90;;;;;;5086276;28;20508;-53
2022/01/13 00:51:38;;;;;;;6.50;4.18;;;8.40;82.00;;;;;;5073448;28;20053;-53
2022/01/13 00:54:06;;;;;;;5.05;4.07;;;8.40;81.90;;;;;;5074865;28;20065;-51
2022/01/13 00:56:33;;;;;;;4.72;3.25;;;8.40;81.90;;;;;;5075037;28;20041;-51
2022/01/13 00:59:00;;;;;;;4.68;3.28;;;8.40;81.90;;;;;;5075459;28;20277;-54
2022/01/13 01:01:26;;;;;;;4.63;2.88;;;8.50;81.90;;;;;;5075008;28;20451;-55
2022/01/13 01:03:51;;;;;;;3.78;2.85;;;8.50;81.90;;;;;;5074680;28;20124;-55
2022/01/13 01:06:17;;;;;;;5.28;3.53;;;8.40;81.90;;;;;;5074416;28;20045;-54
2022/01/13 01:08:43;;;;;;;5.53;3.47;;;8.40;81.90;;;;;;5074866;28;20159;-56
2022/01/13 01:11:09;;;;;;;4.25;3.20;;;8.40;81.90;;;;;;5075395;28;20080;-55
2022/01/13 01:13:36;;;;;;;5.38;3.58;;;8.40;81.90;;;;;;5074948;28;20044;-56
2022/01/13 01:16:06;;;;;;;4.50;3.22;;;8.40;81.90;;;;;;5074828;28;20045;-56
2022/01/13 01:23:57;;;;;;;5.00;3.55;;;8.40;81.90;;;;;;5074382;28;20480;-56
2022/01/13 01:31:49;;;;;;;4.43;3.28;;;8.40;81.90;;;;;;5075406;28;20453;-56
2022/01/13 01:36:57;;;;;;;4.57;3.30;;;8.40;81.90;;;;;;5074065;28;20063;-56
2022/01/13 01:39:24;;;;;;;6.20;3.95;;;8.40;81.90;;;;;;5073373;28;20489;-55
2022/01/13 01:41:52;;;;;;;4.38;3.45;;;8.40;81.90;;;;;;5055967;28;20472;-56
2022/01/13 01:44:32;;;;;;;5.75;3.40;;;8.40;82.50;;;;;;5074311;28;20392;-50
2022/01/13 01:47:00;;;;;;;4.20;3.00;;;8.40;81.90;;;;;;5073898;28;20044;-56
2022/01/13 01:49:27;;;;;;;4.72;3.30;;;8.40;81.90;;;;;;5073985;28;20045;-55
2022/01/13 01:51:57;;;;;;;4.05;3.20;;;8.50;81.90;;;;;;5073361;28;20132;-51
2022/01/13 01:54:24;;;;;;;5.78;3.17;;;8.40;81.90;;;;;;5073229;28;20497;-56
2022/01/13 01:56:50;;;;;;;3.35;2.80;;;8.40;81.90;;;;;;5073860;28;20119;-56
2022/01/13 01:59:20;;;;;;;5.10;3.70;;;8.50;82.00;;;;;;5073893;28;20052;-55
2022/01/13 02:01:48;;;;;;;4.32;3.20;;;8.40;81.90;;;;;;5073546;28;20150;-56
2022/01/13 02:04:15;;;;;;;4.38;3.17;;;8.50;82.00;;;;;;5073121;28;20045;-56
2022/01/13 02:06:44;;;;;;;4.75;3.22;;;8.40;81.90;;;;;;5092756;28;20499;-56
2022/01/13 02:09:11;;;;;;;4.53;3.30;;;8.40;81.90;;;;;;5093339;28;20400;-56
2022/01/13 02:11:43;;;;;;;4.80;2.95;;;8.40;81.90;;;;;;5093561;28;20100;-56
2022/01/13 02:14:32;;;;;;;4.28;3.17;;;8.40;81.90;;;;;;5107757;28;20126;-55
2022/01/13 02:17:04;;;;;;;5.05;3.70;;;8.50;81.90;;;;;;5091771;28;20134;-51
2022/01/13 02:19:31;;;;;;;5.03;3.65;;;8.40;81.90;;;;;;5093776;28;20036;-56
2022/01/13 02:21:57;;;;;;;6.03;3.20;;;8.40;81.90;;;;;;5093346;28;20048;-57
2022/01/13 02:24:23;;;;;;;4.65;3.50;;;8.40;81.90;;;;;;5091281;28;20055;-53
2022/01/13 02:26:48;;;;;;;3.83;2.85;;;8.50;81.90;;;;;;5093486;28;20055;-53
2022/01/13 02:29:15;;;;;;;5.28;2.88;;;8.40;81.90;;;;;;5092970;28;20400;-52
2022/01/13 02:31:40;;;;;;;6.28;3.42;;;8.40;81.90;;;;;;5093476;28;20047;-54
2022/01/13 02:34:06;;;;;;;4.75;3.47;;;8.40;81.90;;;;;;5093751;28;20106;-55
2022/01/13 02:36:32;;;;;;;3.90;3.13;;;8.50;82.00;;;;;;5091361;28;20463;-54
2022/01/13 02:39:00;;;;;;;4.60;3.03;;;8.40;81.90;;;;;;5093373;28;20040;-52
2022/01/13 02:41:26;;;;;;;4.35;3.10;;;8.40;81.90;;;;;;5092412;28;20051;-55
2022/01/13 02:43:53;;;;;;;4.30;3.13;;;8.50;81.90;;;;;;5092970;28;20062;-55
2022/01/13 02:49:09;;;;;;;4.45;3.05;;;8.40;82.00;;;;;;5074936;28;20129;-52
2022/01/13 02:51:36;;;;;;;4.60;2.78;;;8.50;81.90;;;;;;5074243;28;20059;-54
2022/01/13 02:54:03;;;;;;;3.97;3.03;;;8.40;81.90;;;;;;5093236;28;20059;-53
2022/01/13 02:56:30;;;;;;;5.15;3.20;;;8.40;81.90;;;;;;5090677;28;20036;-54
2022/01/13 02:58:56;;;;;;;4.13;3.10;;;8.50;81.90;;;;;;5092996;28;20127;-54
2022/01/13 03:01:22;;;;;;;4.88;3.00;;;8.50;81.90;;;;;;5092628;28;20143;-55
2022/01/13 03:03:48;;;;;;;4.20;3.00;;;8.40;81.90;;;;;;5092492;28;20444;-55
2022/01/13 03:06:17;;;;;;;6.18;3.15;;;8.50;82.00;;;;;;5092927;28;20075;-54
2022/01/13 03:08:46;;;;;;;5.32;3.55;;;8.50;81.90;;;;;;5072625;28;20055;-49
2022/01/13 03:11:13;;;;;;;4.55;2.83;;;8.50;82.00;;;;;;5092460;28;20048;-53
2022/01/13 03:13:39;;;;;;;4.28;2.80;;;8.50;82.00;;;;;;5092237;28;20048;-53
2022/01/13 03:16:09;;;;;;;3.75;2.85;;;8.60;82.00;;;;;;5092735;28;20043;-56
2022/01/13 03:18:36;;;;;;;7.43;4.30;;;8.50;81.90;;;;;;5090951;28;20123;-55
2022/01/13 03:21:03;;;;;;;3.95;2.90;;;8.50;82.00;;;;;;5092536;28;20039;-53
2022/01/13 03:23:29;;;;;;;5.35;2.92;;;8.50;81.90;;;;;;5092320;28;20079;-54
2022/01/13 03:25:55;;;;;;;4.20;2.78;;;8.50;82.00;;;;;;5092540;28;20080;-54
2022/01/13 03:28:37;;;;;;;4.65;3.20;;;8.50;82.60;;;;;;5090229;28;20047;-57
2022/01/13 03:31:04;;;;;;;3.72;2.70;;;8.50;81.90;;;;;;5092699;28;20051;-56
2022/01/13 03:33:29;;;;;;;4.97;2.97;;;8.50;82.00;;;;;;5092508;28;20126;-56
2022/01/13 03:35:56;;;;;;;5.40;3.40;;;8.50;82.00;;;;;;5092659;28;20131;-51
2022/01/13 03:38:22;;;;;;;6.05;3.50;;;8.50;82.60;;;;;;5092588;28;20111;-52
2022/01/13 03:40:48;;;;;;;4.82;2.72;;;8.50;82.00;;;;;;5075716;28;20453;-52
2022/01/13 03:43:16;;;;;;;4.80;3.30;;;8.50;81.90;;;;;;5072027;28;20274;-53
2022/01/13 03:45:43;;;;;;;4.25;2.75;;;8.50;82.00;;;;;;5072009;28;20041;-53
2022/01/13 03:48:09;;;;;;;5.95;3.33;;;8.60;82.10;;;;;;5054395;28;20048;-54
2022/01/13 03:50:35;;;;;;;5.85;3.53;;;8.50;82.00;;;;;;5073107;28;20103;-52
2022/01/13 03:53:01;;;;;;;4.32;2.90;;;8.50;82.00;;;;;;5071814;28;20059;-52
2022/01/13 03:55:36;;;;;;;4.05;2.90;;;8.50;82.00;;;;;;5072328;28;20131;-54
2022/01/13 03:58:29;;;;;;;4.67;3.00;;;8.50;82.00;;;;;;5072207;28;20048;-54
2022/01/13 04:01:29;;;;;;;5.40;3.22;;;8.50;82.00;;;;;;5071266;28;20051;-54
2022/01/13 04:03:55;;;;;;;3.83;2.72;;;8.50;81.90;;;;;;5075627;28;20052;-53
2022/01/13 04:06:20;;;;;;;4.47;3.20;;;8.50;82.00;;;;;;5075760;28;20036;-49
2022/01/13 04:08:47;;;;;;;3.35;2.67;;;8.50;82.00;;;;;;5075949;28;20315;-51
2022/01/13 04:11:26;;;;;;;5.10;3.40;;;8.50;82.00;;;;;;5075370;28;20077;-53
2022/01/13 04:13:58;;;;;;;4.07;2.83;;;8.50;82.00;;;;;;5075934;28;20408;-52
2022/01/13 04:16:27;;;;;;;4.82;3.20;;;8.50;82.00;;;;;;5075227;28;20044;-54
2022/01/13 04:18:57;;;;;;;4.13;2.80;;;8.50;82.00;;;;;;5075642;28;20112;-53
2022/01/13 04:21:24;;;;;;;3.83;3.15;;;8.50;82.00;;;;;;5075071;28;20122;-47
2022/01/13 04:23:49;;;;;;;4.85;3.30;;;8.50;82.00;;;;;;5076366;28;20415;-54
2022/01/13 04:26:19;;;;;;;4.32;2.95;;;8.50;82.00;;;;;;5095707;28;20036;-54
2022/01/13 04:28:46;;;;;;;4.15;3.17;;;8.50;82.00;;;;;;5095716;28;20044;-52
2022/01/13 04:31:12;;;;;;;4.90;3.20;;;8.50;82.00;;;;;;5095706;28;20173;-53
2022/01/13 04:33:38;;;;;;;5.85;3.30;;;8.50;82.60;;;;;;5094605;28;20119;-49
2022/01/13 04:36:07;;;;;;;2.80;2.42;;;8.50;82.00;;;;;;5095575;28;20121;-51
2022/01/13 04:38:32;;;;;;;4.13;3.17;;;8.50;82.00;;;;;;5095559;28;20040;-51
2022/01/13 04:41:01;;;;;;;3.50;3.00;;;8.50;82.00;;;;;;5095496;28;20055;-50
2022/01/13 04:43:30;;;;;;;4.18;3.20;;;8.50;82.00;;;;;;5095062;28;20129;-49
2022/01/13 04:45:56;;;;;;;4.15;2.65;;;8.50;82.00;;;;;;5075098;28;20040;-52
2022/01/13 04:48:22;;;;;;;3.88;2.70;;;8.50;82.00;;;;;;5074430;28;20097;-52
2022/01/13 04:50:48;;;;;;;4.25;3.00;;;8.50;82.00;;;;;;5075133;28;20484;-51
2022/01/13 04:53:14;;;;;;;3.35;2.80;;;8.50;82.00;;;;;;5074703;28;20075;-53
2022/01/13 04:55:49;;;;;;;5.18;2.72;;;8.50;82.00;;;;;;5093497;28;20482;-53
2022/01/13 04:58:15;;;;;;;4.10;2.70;;;8.50;82.00;;;;;;5095388;28;20082;-52
2022/01/13 05:00:41;;;;;;;4.75;3.10;;;8.50;82.00;;;;;;5095019;28;20101;-50
2022/01/13 05:03:07;;;;;;;5.20;2.90;;;8.50;82.00;;;;;;5094621;28;20040;-51
2022/01/13 05:05:33;;;;;;;4.47;3.10;;;8.50;82.00;;;;;;5094221;28;20392;-52
2022/01/13 05:07:58;;;;;;;3.95;2.80;;;8.50;82.00;;;;;;5094997;28;20449;-54
2022/01/13 05:10:24;;;;;;;4.38;2.95;;;8.50;82.00;;;;;;5094977;28;20484;-49
2022/01/13 05:12:54;;;;;;;3.78;2.70;;;8.50;82.00;;;;;;5094711;28;20494;-49
2022/01/13 05:15:27;;;;;;;4.50;2.90;;;8.50;82.00;;;;;;5094214;28;20111;-51
2022/01/13 05:18:09;;;;;;;3.70;2.55;;;8.50;82.00;;;;;;5094543;28;20048;-54
2022/01/13 05:23:24;;;;;;;4.32;3.30;;;8.50;82.00;;;;;;5052035;28;20405;-54
2022/01/13 05:25:50;;;;;;;5.43;3.03;;;8.50;82.00;;;;;;5050487;28;20045;-53
2022/01/13 05:28:16;;;;;;;4.82;3.45;;;8.50;82.00;;;;;;5052015;28;20063;-51
2022/01/13 05:30:42;;;;;;;3.55;2.72;;;8.50;82.10;;;;;;5051990;28;20083;-52
2022/01/13 05:33:08;;;;;;;3.67;2.80;;;8.50;82.00;;;;;;5051968;28;20080;-51
2022/01/13 05:35:36;;;;;;;3.90;2.90;;;8.50;82.00;;;;;;5051367;28;20131;-49
2022/01/13 05:38:02;;;;;;;4.10;3.10;;;8.50;82.10;;;;;;5049689;28;20140;-51
2022/01/13 05:40:29;;;;;;;4.05;2.92;;;8.50;82.00;;;;;;5051877;28;20471;-51
2022/01/13 05:42:55;;;;;;;4.63;3.45;;;8.40;82.00;;;;;;5035266;28;20397;-50
2022/01/13 05:45:23;;;;;;;4.35;3.22;;;8.50;82.10;;;;;;5051684;28;20041;-52
2022/01/13 05:47:50;;;;;;;5.47;2.97;;;8.50;82.00;;;;;;5050098;28;20121;-51
2022/01/13 05:50:17;;;;;;;6.07;3.42;;;8.50;82.00;;;;;;5051878;28;20049;-54
2022/01/13 05:52:43;;;;;;;3.80;2.95;;;8.50;82.10;;;;;;5050730;28;20190;-51
2022/01/13 05:55:10;;;;;;;4.35;3.08;;;8.50;82.00;;;;;;5051596;28;20119;-54
2022/01/13 05:57:36;;;;;;;5.50;3.13;;;8.50;82.00;;;;;;5049768;28;20038;-54
2022/01/13 06:00:04;;;;;;;4.20;2.78;;;8.50;82.00;;;;;;5059126;28;20044;-53
2022/01/13 06:02:30;;;;;;;4.30;3.30;;;8.50;82.00;;;;;;5091179;28;20537;-53
2022/01/13 06:04:56;;;;;;;4.47;3.25;;;8.50;82.00;;;;;;5093830;28;20048;-54
2022/01/13 06:07:21;;;;;;;3.58;2.80;;;8.50;82.00;;;;;;5093645;28;20472;-53
2022/01/13 06:09:47;;;;;;;5.55;3.25;;;8.50;82.00;;;;;;5092969;28;20131;-52
2022/01/13 06:12:13;;;;;;;5.03;3.30;;;8.50;82.00;;;;;;5093686;28;20044;-54
2022/01/13 06:14:38;;;;;;;3.78;2.70;;;8.60;82.10;;;;;;5093654;28;20373;-53
2022/01/13 06:17:04;;;;;;;3.55;2.97;;;8.50;82.00;;;;;;5093668;28;20087;-56
2022/01/13 06:19:30;;;;;;;5.20;3.00;;;8.50;82.10;;;;;;5093316;28;20035;-53
2022/01/13 06:21:55;;;;;;;3.28;2.70;;;8.50;82.00;;;;;;5093428;28;20043;-55
2022/01/13 06:24:21;;;;;;;4.10;2.95;;;8.50;82.00;;;;;;5092205;28;20036;-54
2022/01/13 06:26:46;;;;;;;4.07;2.95;;;8.50;82.00;;;;;;5093016;28;20092;-52
2022/01/13 06:29:12;;;;;;;5.32;3.25;;;8.50;82.10;;;;;;5093032;28;20119;-56
2022/01/13 06:31:38;;;;;;;4.63;3.25;;;8.60;82.10;;;;;;5093080;28;20472;-53
2022/01/13 06:34:04;;;;;;;4.68;2.90;;;8.50;82.10;;;;;;5093316;28;20067;-55
2022/01/13 06:36:31;;;;;;;4.95;3.03;;;8.50;82.10;;;;;;5093252;28;20060;-49
2022/01/13 06:38:57;;;;;;;4.43;3.08;;;8.50;82.10;;;;;;5093066;28;20040;-52
2022/01/13 06:41:23;;;;;;;4.13;3.03;;;8.50;82.00;;;;;;5073971;28;20054;-53
2022/01/13 06:43:49;;;;;;;4.28;3.00;;;8.50;82.10;;;;;;5093145;28;20051;-56
2022/01/13 06:46:15;;;;;;;4.93;2.70;;;8.50;82.10;;;;;;5092825;28;20125;-54
2022/01/13 06:48:42;;;;;;;4.18;3.10;;;8.50;82.10;;;;;;5093209;28;20040;-55
2022/01/13 06:51:08;;;;;;;6.05;3.72;;;8.60;82.10;;;;;;5092829;28;20116;-55
2022/01/13 06:53:34;;;;;;;4.78;3.38;;;8.50;82.10;;;;;;5088153;28;20056;-56
2022/01/13 06:56:00;;;;;;;3.90;2.83;;;8.50;82.10;;;;;;5054606;28;20053;-56
2022/01/13 06:58:27;;;;;;;5.28;3.80;;;8.60;82.20;;;;;;5072546;28;20037;-55
2022/01/13 07:00:53;;;;;;;6.78;3.88;;;8.50;82.10;;;;;;5072428;28;20453;-50
2022/01/13 07:03:20;;;;;;;5.50;3.45;;;8.60;82.40;;;;;;5071881;28;20119;-55
2022/01/13 07:05:46;;;;;;;3.63;2.80;;;8.50;82.10;;;;;;5072938;28;20056;-56
2022/01/13 07:08:12;;;;;;;5.50;3.42;;;8.60;82.20;;;;;;5072665;28;20068;-53
2022/01/13 07:10:38;;;;;;;4.78;3.35;;;8.50;82.10;;;;;;5072641;28;20468;-55
2022/01/13 07:13:04;;;;;;;4.20;3.10;;;8.50;82.10;;;;;;5071441;28;20073;-56
2022/01/13 07:15:31;;;;;;;5.55;3.60;;;8.50;82.00;;;;;;5072583;28;20052;-53
2022/01/13 07:17:57;;;;;;;4.65;3.38;;;8.50;82.00;;;;;;5072361;28;20052;-54
2022/01/13 07:20:25;;;;;;;4.63;3.55;;;8.60;82.10;;;;;;5072455;28;20374;-54
2022/01/13 07:22:51;;;;;;;5.15;3.40;;;8.50;82.10;;;;;;5053635;28;20048;-55
2022/01/13 07:25:17;;;;;;;5.00;3.33;;;8.60;82.20;;;;;;5072131;28;20505;-55
2022/01/13 07:27:43;;;;;;;4.47;3.17;;;8.50;82.10;;;;;;5071876;28;20049;-53
2022/01/13 07:30:10;;;;;;;5.32;3.97;;;8.50;82.10;;;;;;5071863;28;20090;-56
2022/01/13 07:32:36;;;;;;;4.80;3.50;;;8.50;82.10;;;;;;5072177;28;20516;-55
2022/01/13 07:35:03;;;;;;;4.85;3.53;;;8.50;82.10;;;;;;5071912;28;20377;-55
2022/01/13 07:37:29;;;;;;;6.00;3.92;;;8.50;82.10;;;;;;5075131;28;20082;-54
2022/01/13 07:39:54;;;;;;;4.32;3.00;;;8.60;82.20;;;;;;5075754;28;20096;-55
2022/01/13 07:42:23;;;;;;;5.07;3.28;;;8.50;82.10;;;;;;5075665;28;20500;-56
2022/01/13 07:44:48;;;;;;;5.57;4.07;;;8.50;82.10;;;;;;5067953;28;20584;-56
2022/01/13 07:47:14;;;;;;;3.92;2.90;;;8.70;82.20;;;;;;5069914;28;20111;-53
2022/01/13 07:49:40;;;;;;;5.68;2.97;;;8.50;82.10;;;;;;5075871;28;20476;-51
2022/01/13 07:52:06;;;;;;;3.22;2.65;;;8.60;82.20;;;;;;5090248;28;20056;-49
2022/01/13 07:54:32;;;;;;;4.93;3.30;;;8.60;82.20;;;;;;5095994;28;20048;-50
2022/01/13 07:56:59;;;;;;;6.05;3.95;;;8.60;82.20;;;;;;5096070;28;20032;-53
2022/01/13 07:59:27;;;;;;;4.57;3.35;;;8.60;82.20;;;;;;5096322;28;20048;-53
2022/01/13 08:01:57;;;;;;;6.30;3.97;;;8.60;82.20;;;;;;5095665;28;20119;-53
2022/01/13 08:04:23;;;;;;;6.03;3.35;;;8.60;82.10;;;;;;5096134;28;20044;-57
2022/01/13 08:06:50;;;;;;;36.70;19.20;;;8.50;82.10;;;;;;5078245;28;20044;-54
2022/01/13 08:09:15;;;;;;;23.85;13.55;;;8.50;82.80;;;;;;5096653;28;20171;-55
2022/01/13 08:11:41;;;;;;;12.68;7.50;;;8.60;83.10;;;;;;5096353;28;20514;-55
2022/01/13 08:14:07;;;;;;;11.98;7.38;;;8.60;83.00;;;;;;5096025;28;20047;-56
2022/01/13 08:16:35;;;;;;;12.48;8.05;;;8.60;83.00;;;;;;5095468;28;20080;-56
2022/01/13 08:21:46;;;;;;;18.10;8.02;;;8.50;82.80;;;;;;5095812;28;20044;-54
2022/01/13 08:24:12;;;;;;;15.13;7.68;;;8.50;83.30;;;;;;5095546;28;20047;-55
2022/01/13 08:26:38;;;;;;;13.82;7.55;;;8.50;82.70;;;;;;5095829;28;20036;-55
2022/01/13 08:29:04;;;;;;;14.32;7.82;;;8.50;82.70;;;;;;5095522;28;20083;-57
2022/01/13 08:31:30;;;;;;;12.48;6.90;;;8.50;82.60;;;;;;5095251;28;20085;-56
2022/01/13 08:33:56;;;;;;;14.60;8.13;;;8.60;82.70;;;;;;5095101;28;20047;-57
2022/01/13 08:36:22;;;;;;;11.90;7.70;;;8.60;82.70;;;;;;5095634;28;20040;-57
2022/01/13 08:38:49;;;;;;;10.10;7.25;;;8.50;82.60;;;;;;5091232;28;20049;-57
2022/01/13 08:41:16;;;;;;;12.15;6.80;;;8.50;82.50;;;;;;5075346;28;20049;-51
2022/01/13 08:43:42;;;;;;;14.32;7.72;;;8.50;82.50;;;;;;5075039;28;20041;-57
2022/01/13 08:46:08;;;;;;;11.95;7.28;;;8.60;82.60;;;;;;5074988;28;20465;-57
2022/01/13 08:48:34;;;;;;;12.15;7.00;;;8.60;82.60;;;;;;5073624;28;20080;-55
2022/01/13 08:51:02;;;;;;;26.08;13.60;;;8.60;82.50;;;;;;5075004;28;20638;-55
2022/01/13 08:53:28;;;;;;;19.17;11.93;;;8.60;83.00;;;;;;5092519;28;20126;-57
2022/01/13 08:55:55;;;;;;;15.25;9.65;;;8.50;83.10;;;;;;5095049;28;20142;-58
2022/01/13 08:58:22;;;;;;;16.77;10.48;;;8.50;83.10;;;;;;5074889;28;20058;-56
2022/01/13 09:00:49;;;;;;;14.90;9.50;;;8.50;83.20;;;;;;5075018;28;20055;-56
2022/01/13 09:03:15;;;;;;;18.38;9.15;;;8.50;83.30;;;;;;5074724;28;20044;-57
2022/01/13 09:05:43;;;;;;;13.77;8.18;;;8.50;83.30;;;;;;5086955;28;20036;-56
2022/01/13 09:08:10;;;;;;;14.90;9.15;;;8.50;83.30;;;;;;5070554;28;20036;-56
2022/01/13 09:10:42;;;;;;;12.18;8.85;;;8.50;83.30;;;;;;5093959;28;20119;-57
2022/01/13 09:13:17;;;;;;;14.93;9.18;;;8.50;83.20;;;;;;5089905;28;20185;-56
2022/01/13 09:15:52;;;;;;;17.70;9.52;;;8.60;83.30;;;;;;5090496;28;20043;-58
2022/01/13 09:18:32;;;;;;;13.63;8.98;;;8.50;83.20;;;;;;5096930;28;20043;-57
2022/01/13 09:20:58;;;;;;;14.00;8.30;;;8.50;83.10;;;;;;5105976;28;20051;-53
2022/01/13 09:23:24;;;;;;;13.57;9.05;;;8.50;83.10;;;;;;5106280;28;20682;-57
2022/01/13 09:25:50;;;;;;;13.27;8.65;;;8.50;83.00;;;;;;5114698;28;20039;-57
2022/01/13 09:28:16;;;;;;;11.70;8.50;;;8.50;83.00;;;;;;5114383;28;20181;-56
2022/01/13 09:30:42;;;;;;;11.77;8.23;;;8.50;83.00;;;;;;5111179;28;20036;-57
2022/01/13 09:33:08;;;;;;;13.55;9.07;;;8.50;82.90;;;;;;5108940;28;20066;-58
2022/01/13 09:35:34;;;;;;;12.10;7.65;;;8.50;83.00;;;;;;5113776;28;20040;-57
2022/01/13 09:38:01;;;;;;;14.40;8.63;;;8.50;82.90;;;;;;5110022;28;20130;-55
2022/01/13 09:40:27;;;;;;;12.20;8.65;;;8.50;82.90;;;;;;5110958;28;20043;-56
2022/01/13 09:42:54;;;;;;;15.27;8.50;;;8.50;82.90;;;;;;5092685;28;20134;-53
2022/01/13 09:45:21;;;;;;;12.85;7.95;;;8.50;82.90;;;;;;5110567;28;20051;-53
2022/01/13 09:47:48;;;;;;;12.77;7.85;;;8.60;83.00;;;;;;5110036;28;20054;-55
2022/01/13 09:50:18;;;;;;;12.20;8.38;;;8.50;82.90;;;;;;5110549;28;20043;-53
2022/01/13 09:52:44;;;;;;;12.30;7.75;;;8.60;82.90;;;;;;5109153;28;20059;-55
2022/01/13 09:55:12;;;;;;;14.40;8.50;;;8.60;82.90;;;;;;5110396;28;20112;-54
2022/01/13 09:57:43;;;;;;;12.70;8.98;;;8.60;82.90;;;;;;5110222;28;20043;-52
2022/01/13 10:00:11;;;;;;;12.20;8.32;;;8.60;82.90;;;;;;5093059;28;20051;-53
2022/01/13 10:02:37;;;;;;;11.60;8.30;;;8.60;82.90;;;;;;5110103;28;20518;-54
2022/01/13 10:05:03;;;;;;;12.25;8.15;;;8.60;82.80;;;;;;5110163;28;20047;-53
2022/01/13 10:07:43;;;;;;;11.75;7.40;;;8.60;82.90;;;;;;5090364;28;20065;-54
2022/01/13 10:10:31;;;;;;;12.00;7.65;;;8.60;82.80;;;;;;5109866;28;20079;-55
2022/01/13 10:13:04;;;;;;;11.48;7.72;;;8.60;82.80;;;;;;5109765;28;20050;-53
2022/01/13 10:18:36;;;;;;;10.35;7.35;;;8.60;82.80;;;;;;5105986;28;20051;-54
2022/01/13 10:21:11;;;;;;;11.95;7.95;;;8.50;82.70;;;;;;5103603;28;20039;-57
2022/01/13 10:23:37;;;;;;;10.60;7.90;;;8.60;82.80;;;;;;5108843;28;20043;-56
2022/01/13 10:26:12;;;;;;;10.98;7.75;;;8.60;82.80;;;;;;5109498;28;20046;-58
2022/01/13 10:28:38;;;;;;;;;;;8.60;82.80;;;;;;5110423;28;20527;-53
2022/01/13 10:31:04;;;;;;;;;;;8.70;82.80;;;;;;5110830;28;19931;-54
2022/01/13 10:33:30;;;;;;;12.80;8.35;;;8.50;82.70;;;;;;5109636;28;19924;-52
2022/01/13 10:36:11;;;;;;;11.25;7.65;;;8.60;82.80;;;;;;5109392;28;20043;-51
2022/01/13 10:38:54;;;;;;;11.23;7.38;;;8.60;82.80;;;;;;5109297;28;20384;-56
2022/01/13 10:41:35;;;;;;;10.00;7.18;;;8.60;82.70;;;;;;5109549;28;20414;-55
2022/01/13 10:44:16;;;;;;;11.25;7.63;;;8.60;82.80;;;;;;5091619;28;20104;-55
2022/01/13 10:47:02;;;;;;;11.75;7.60;;;8.60;82.70;;;;;;5094265;28;20073;-54
2022/01/13 10:49:40;;;;;;;10.90;7.03;;;8.60;82.70;;;;;;5101387;28;20745;-56
2022/01/13 10:52:24;;;;;;;12.15;8.60;;;8.60;82.80;;;;;;5111299;28;20055;-53
2022/01/13 10:55:05;;;;;;;9.77;7.30;;;8.60;82.70;;;;;;5110714;28;20052;-53
2022/01/13 10:57:32;;;;;;;10.85;7.05;;;8.60;82.70;;;;;;5112207;28;20041;-56
2022/01/13 10:59:58;;;;;;;10.13;7.10;;;8.60;82.80;;;;;;5094295;28;20104;-57
2022/01/13 11:02:26;;;;;;;10.00;6.93;;;8.60;82.80;;;;;;5110236;28;20048;-56
2022/01/13 11:04:53;;;;;;;9.32;7.40;;;8.60;83.40;;;;;;5111363;28;20036;-57
2022/01/13 11:07:23;;;;;;;10.82;7.93;;;8.60;82.70;;;;;;5112471;28;20036;-57
2022/01/13 11:09:56;;;;;;;11.05;7.95;;;8.60;82.70;;;;;;5111476;28;20052;-56
2022/01/13 11:12:44;;;;;;;12.65;7.95;;;8.60;82.70;;;;;;5110615;28;20031;-52
2022/01/13 11:15:15;;;;;;;11.45;7.68;;;8.60;82.70;;;;;;5093947;28;20051;-57
2022/01/13 11:17:44;;;;;;;8.73;6.93;;;8.60;82.80;;;;;;5112340;28;20093;-56
2022/01/13 11:20:12;;;;;;;10.52;7.18;;;8.60;82.70;;;;;;5127904;27;20070;-56
2022/01/13 11:22:43;;;;;;;8.70;6.20;;;8.60;82.70;;;;;;5111392;28;20028;-56
2022/01/13 11:25:11;;;;;;;9.65;7.20;;;8.60;82.70;;;;;;5111845;28;20062;-56
2022/01/13 11:27:38;;;;;;;9.75;7.32;;;8.60;82.70;;;;;;5093059;28;20044;-54
2022/01/13 11:30:10;;;;;;;9.10;6.63;;;8.60;82.70;;;;;;5112027;28;20131;-56
2022/01/13 11:32:39;;;;;;;10.60;7.55;;;8.60;82.70;;;;;;5110611;28;20051;-56
2022/01/13 11:35:06;;;;;;;9.43;6.90;;;8.60;82.70;;;;;;5112189;28;20051;-59
2022/01/13 11:37:32;;;;;;;10.02;7.05;;;8.60;82.70;;;;;;5111947;28;20155;-57
2022/01/13 11:39:58;;;;;;;10.30;7.07;;;8.60;82.70;;;;;;5111911;28;20104;-53
2022/01/13 11:42:24;;;;;;;9.13;6.25;;;8.60;82.70;;;;;;5111976;28;20085;-52
2022/01/13 11:45:10;;;;;;;9.60;7.05;;;8.60;82.70;;;;;;5111895;28;20108;-54
2022/01/13 11:47:37;;;;;;;7.38;5.93;;;8.70;82.70;;;;;;5111804;28;20082;-56
2022/01/13 11:50:22;;;;;;;10.95;6.65;;;8.70;82.70;;;;;;5111814;28;20036;-56
2022/01/13 11:52:52;;;;;;;8.60;6.10;;;8.70;82.70;;;;;;5111462;28;20048;-57
2022/01/13 11:55:34;;;;;;;11.27;7.20;;;8.70;82.70;;;;;;5093743;28;20060;-57
2022/01/13 11:58:16;;;;;;;8.25;5.97;;;8.70;82.70;;;;;;5110420;28;20036;-54
2022/01/13 12:00:44;;;;;;;9.57;6.72;;;8.70;82.70;;;;;;5097912;28;20130;-54
2022/01/13 12:03:23;;;;;;;8.25;7.03;;;8.60;82.70;;;;;;5111263;28;20036;-56
2022/01/13 12:05:49;;;;;;;9.73;6.43;;;8.70;82.70;;;;;;5111925;28;20081;-55
2022/01/13 12:08:48;;;;;;;8.70;6.55;;;8.70;82.70;;;;;;5111729;28;20043;-56
2022/01/13 12:11:42;;;;;;;10.00;7.65;;;8.70;82.70;;;;;;5111647;28;20096;-55
2022/01/13 12:14:34;;;;;;;9.35;6.53;;;8.70;82.70;;;;;;5111487;28;20040;-55
2022/01/13 12:17:08;;;;;;;8.48;6.75;;;8.70;82.70;;;;;;5111248;28;20071;-54
2022/01/13 12:19:39;;;;;;;9.35;6.28;;;8.60;82.70;;;;;;5093314;28;20131;-56
2022/01/13 12:22:11;;;;;;;7.82;6.28;;;8.60;82.70;;;;;;5111319;28;20121;-55
2022/01/13 12:24:57;;;;;;;10.60;6.78;;;8.70;82.80;;;;;;5115360;28;20046;-56
2022/01/13 12:27:47;;;;;;;10.60;7.22;;;8.70;82.70;;;;;;5132232;27;20516;-58
2022/01/13 12:30:21;;;;;;;9.43;6.68;;;8.70;82.80;;;;;;5013353;28;20625;-57
2022/01/13 12:32:56;;;;;;;9.07;6.85;;;8.70;82.80;;;;;;5025397;28;20057;-55
2022/01/13 12:35:22;;;;;;;9.80;6.10;;;8.70;82.80;;;;;;5033298;28;20397;-56
2022/01/13 12:38:10;;;;;;;8.35;6.78;;;8.70;82.80;;;;;;5033141;28;20037;-56
2022/01/13 12:40:42;;;;;;;8.77;6.68;;;8.70;83.40;;;;;;4993523;28;20121;-57
2022/01/13 12:43:35;;;;;;;6.75;5.88;;;8.70;82.80;;;;;;4993638;28;20061;-56
2022/01/13 12:46:04;;;;;;;7.70;5.28;;;8.70;82.80;;;;;;4993544;28;20071;-58
2022/01/13 12:48:31;;;;;;;8.70;5.78;;;8.70;82.80;;;;;;4993116;28;20050;-57
2022/01/13 12:50:59;;;;;;;8.35;6.03;;;8.70;82.80;;;;;;4993498;28;20050;-57
2022/01/13 12:53:27;;;;;;;7.28;5.32;;;8.70;82.80;;;;;;4992958;28;20090;-56
2022/01/13 12:56:01;;;;;;;8.13;5.72;;;8.60;82.70;;;;;;4993513;28;20060;-54
2022/01/13 12:58:30;;;;;;;7.68;5.75;;;8.70;82.80;;;;;;4993581;28;20059;-56
2022/01/13 13:00:58;;;;;;;7.90;6.15;;;8.70;82.80;;;;;;4993521;28;20054;-55
2022/01/13 13:03:24;;;;;;;7.18;5.75;;;8.70;82.80;;;;;;4984992;28;20039;-56
2022/01/13 13:05:51;;;;;;;8.48;5.95;;;8.70;82.80;;;;;;4972833;28;20137;-56
2022/01/13 13:08:21;;;;;;;7.22;5.80;;;8.70;82.80;;;;;;5027570;28;20049;-56
2022/01/13 13:10:50;;;;;;;7.00;5.05;;;8.70;82.70;;;;;;5053063;28;20110;-58
2022/01/13 13:13:17;;;;;;;9.05;6.45;;;8.70;82.80;;;;;;5051010;28;20045;-57
2022/01/13 13:16:11;;;;;;;7.45;5.60;;;8.70;82.80;;;;;;5032649;28;20053;-58
2022/01/13 13:18:37;;;;;;;9.02;6.32;;;8.70;83.30;;;;;;5086281;28;20055;-58
2022/01/13 13:21:05;;;;;;;7.28;5.68;;;8.70;82.70;;;;;;5110265;28;20048;-58
2022/01/13 13:23:34;;;;;;;7.95;6.47;;;8.70;82.80;;;;;;5094536;28;20040;-57
2022/01/13 13:26:09;;;;;;;8.55;5.75;;;8.70;82.80;;;;;;5107667;27;20039;-57
2022/01/13 13:28:38;;;;;;;7.40;5.78;;;8.70;82.80;;;;;;5136006;27;20046;-58
2022/01/13 13:31:07;;;;;;;7.57;5.70;;;8.70;82.80;;;;;;5135419;27;20047;-59
2022/01/13 13:33:39;;;;;;;7.68;5.50;;;8.70;82.80;;;;;;5116643;27;20452;-57